Time;durP1;ratioP1;P1;durP2;ratioP2;P2;SDS_P1;SDS_P2;PMS_P1;PMS_P2;Temp;Humidity;BMP_temperature;BMP_pressure;BME280_temperature;BME280_humidity;BME280_pressure;Samples;Min_cycle;Max_cycle;Signal;HPM_P1;HPM_P2
2022/06/25 00:02:14;;;;;;;37.58;17.60;;;16.10;99.90;;;;;;5055304;28;20036;-84
2022/06/25 00:07:25;;;;;;;29.00;16.23;;;16.20;99.90;;;;;;5057522;28;20340;-84
2022/06/25 00:09:52;;;;;;;36.25;17.40;;;16.20;99.90;;;;;;5055651;28;20029;-82
2022/06/25 00:12:33;;;;;;;35.78;18.67;;;16.10;99.90;;;;;;5038960;28;20041;-82
2022/06/25 00:15:08;;;;;;;39.60;18.52;;;16.20;99.90;;;;;;5044993;28;20045;-82
2022/06/25 00:17:35;;;;;;;37.60;18.73;;;16.20;99.90;;;;;;5036840;28;20037;-83
2022/06/25 00:20:03;;;;;;;39.25;19.70;;;16.30;99.90;;;;;;5039252;28;20038;-83
2022/06/25 00:22:29;;;;;;;39.88;19.42;;;16.30;99.90;;;;;;5035318;28;20045;-83
2022/06/25 00:24:56;;;;;;;39.13;18.77;;;16.40;99.90;;;;;;5034859;28;20376;-83
2022/06/25 00:27:22;;;;;;;40.50;18.95;;;16.30;99.90;;;;;;5034453;28;20041;-82
2022/06/25 00:29:48;;;;;;;34.10;17.95;;;16.30;99.90;;;;;;5038746;28;20475;-82
2022/06/25 00:32:15;;;;;;;40.05;19.80;;;16.30;99.90;;;;;;5040488;28;20044;-83
2022/06/25 00:34:42;;;;;;;40.45;20.13;;;16.30;99.90;;;;;;5037724;28;20046;-83
2022/06/25 00:37:09;;;;;;;42.65;20.80;;;16.30;99.90;;;;;;5038124;28;20041;-83
2022/06/25 00:39:36;;;;;;;36.92;19.70;;;16.30;99.90;;;;;;5035052;28;20029;-84
2022/06/25 00:42:11;;;;;;;42.92;20.13;;;16.30;99.90;;;;;;5036928;28;20481;-83
2022/06/25 00:44:37;;;;;;;36.10;19.67;;;16.20;99.90;;;;;;5035367;28;20029;-83
2022/06/25 00:47:07;;;;;;;44.88;21.40;;;16.30;99.90;;;;;;5037571;28;20029;-83
2022/06/25 00:49:33;;;;;;;47.13;21.20;;;16.30;99.90;;;;;;5038577;28;20029;-82
2022/06/25 00:52:04;;;;;;;47.22;21.90;;;16.30;99.90;;;;;;5035039;28;20047;-83
2022/06/25 00:54:32;;;;;;;;;;;16.30;99.90;;;;;;5035112;28;20398;-84
2022/06/25 00:57:00;;;;;;;45.08;19.45;;;16.30;99.90;;;;;;5051961;28;19917;-83
2022/06/25 00:59:28;;;;;;;39.72;19.90;;;16.30;99.90;;;;;;5033376;28;20509;-84
2022/06/25 01:01:54;;;;;;;43.58;21.35;;;16.40;99.90;;;;;;5033883;28;20033;-84
2022/06/25 01:04:20;;;;;;;45.33;23.52;;;16.40;99.90;;;;;;5034577;28;20041;-84
2022/06/25 01:06:48;;;;;;;43.88;21.38;;;16.40;99.90;;;;;;5033247;28;20042;-84
2022/06/25 01:09:14;;;;;;;47.97;22.48;;;16.30;99.90;;;;;;5031817;28;20049;-84
2022/06/25 01:11:41;;;;;;;51.65;23.45;;;16.30;99.90;;;;;;5039722;28;20048;-84
2022/06/25 01:14:09;;;;;;;54.13;24.10;;;16.20;99.90;;;;;;5032556;28;20045;-84
2022/06/25 01:16:35;;;;;;;43.33;21.67;;;16.30;99.90;;;;;;5033613;28;20060;-84
2022/06/25 01:19:10;;;;;;;49.97;22.02;;;16.20;99.90;;;;;;5033426;28;20033;-84
2022/06/25 01:21:37;;;;;;;51.08;21.63;;;16.20;99.90;;;;;;5034759;28;20037;-84
2022/06/25 01:24:05;;;;;;;43.67;21.42;;;16.20;99.90;;;;;;5033702;28;20041;-84
2022/06/25 01:26:41;;;;;;;35.85;20.63;;;16.20;99.90;;;;;;5033120;28;20033;-83
2022/06/25 01:29:09;;;;;;;40.83;20.85;;;16.20;99.90;;;;;;5033344;28;20356;-84
2022/06/25 01:31:37;;;;;;;49.75;21.05;;;16.10;99.90;;;;;;5034043;28;20041;-84
2022/06/25 01:34:03;;;;;;;41.55;21.08;;;16.10;99.90;;;;;;5035654;28;20041;-85
2022/06/25 01:36:30;;;;;;;44.13;22.17;;;16.10;99.90;;;;;;5046018;28;20041;-84
2022/06/25 01:38:56;;;;;;;44.85;21.55;;;16.10;99.90;;;;;;5048948;28;20533;-85
2022/06/25 01:41:22;;;;;;;44.05;21.15;;;16.10;99.90;;;;;;5033306;28;20033;-84
2022/06/25 01:43:48;;;;;;;48.28;21.58;;;16.10;99.90;;;;;;5033916;28;20033;-84
2022/06/25 01:46:16;;;;;;;42.40;20.98;;;16.00;99.90;;;;;;5032769;28;20042;-84
2022/06/25 01:48:42;;;;;;;43.90;20.38;;;16.00;99.90;;;;;;5033594;28;20036;-84
2022/06/25 01:51:09;;;;;;;44.03;21.88;;;16.00;99.90;;;;;;5048527;28;20041;-84
2022/06/25 01:53:35;;;;;;;49.72;22.05;;;16.00;99.90;;;;;;5064575;28;20038;-84
2022/06/25 01:56:02;;;;;;;43.60;20.60;;;16.00;99.90;;;;;;5045074;28;20056;-84
2022/06/25 01:58:29;;;;;;;40.72;20.92;;;16.00;99.90;;;;;;5047373;28;20037;-85
2022/06/25 02:00:55;;;;;;;51.25;22.88;;;15.90;99.90;;;;;;5045224;28;20041;-85
2022/06/25 02:03:22;;;;;;;42.45;20.67;;;15.90;99.90;;;;;;5032710;28;20033;-86
2022/06/25 02:05:57;;;;;;;47.05;22.80;;;15.90;99.90;;;;;;5032841;28;20037;-84
2022/06/25 02:08:29;;;;;;;47.45;21.67;;;15.90;99.90;;;;;;5035405;28;20458;-84
2022/06/25 02:10:56;;;;;;;47.13;22.45;;;15.90;99.90;;;;;;5048957;28;20022;-85
2022/06/25 02:13:23;;;;;;;42.58;21.42;;;16.00;99.90;;;;;;5032439;28;20046;-85
2022/06/25 02:15:49;;;;;;;52.90;23.17;;;16.00;99.90;;;;;;5031501;28;20061;-84
2022/06/25 02:18:16;;;;;;;56.55;25.02;;;16.10;99.90;;;;;;5041305;28;20044;-85
2022/06/25 02:20:42;;;;;;;57.25;24.83;;;16.10;99.90;;;;;;5042732;28;20033;-85
2022/06/25 02:23:10;;;;;;;46.90;22.77;;;16.00;99.90;;;;;;5032509;28;20352;-85
2022/06/25 02:25:36;;;;;;;57.03;24.95;;;16.00;99.90;;;;;;5035707;28;20487;-84
2022/06/25 02:28:03;;;;;;;50.42;24.08;;;15.90;99.90;;;;;;5016207;28;20041;-84
2022/06/25 02:30:31;;;;;;;47.65;22.83;;;15.90;99.90;;;;;;5031764;28;20041;-84
2022/06/25 02:32:57;;;;;;;51.17;23.33;;;15.90;99.90;;;;;;5032635;28;20383;-84
2022/06/25 02:35:24;;;;;;;43.00;21.98;;;15.90;99.90;;;;;;5033078;28;20044;-85
2022/06/25 02:37:51;;;;;;;69.32;27.27;;;15.90;99.90;;;;;;5032746;28;20061;-85
2022/06/25 02:40:18;;;;;;;55.72;24.42;;;16.00;99.90;;;;;;5048720;28;20061;-85
2022/06/25 02:42:46;;;;;;;51.58;24.02;;;15.90;99.90;;;;;;5050740;28;20046;-84
2022/06/25 02:45:13;;;;;;;45.92;24.23;;;15.80;99.90;;;;;;5035797;28;20046;-85
2022/06/25 02:47:45;;;;;;;61.38;24.92;;;15.80;99.90;;;;;;5031936;28;20042;-85
2022/06/25 02:50:12;;;;;;;50.08;25.05;;;15.80;99.90;;;;;;5054052;28;20041;-86
2022/06/25 02:52:40;;;;;;;52.88;26.52;;;15.70;99.90;;;;;;5046925;28;20041;-85
2022/06/25 02:55:12;;;;;;;54.65;25.95;;;15.80;99.90;;;;;;5047057;28;20060;-85
2022/06/25 03:00:37;;;;;;;48.73;24.90;;;15.70;99.90;;;;;;5070888;28;20390;-84
2022/06/25 03:03:04;;;;;;;46.03;23.20;;;15.70;99.90;;;;;;5035483;28;20506;-85
2022/06/25 03:05:30;;;;;;;54.47;24.70;;;15.70;99.90;;;;;;5034599;28;20045;-87
2022/06/25 03:07:56;;;;;;;49.67;25.33;;;15.70;99.90;;;;;;5038271;28;20037;-86
2022/06/25 03:10:23;;;;;;;48.70;25.52;;;15.70;99.90;;;;;;5036944;28;20029;-86
2022/06/25 03:12:49;;;;;;;60.33;25.88;;;15.70;99.90;;;;;;5033314;28;20034;-83
2022/06/25 03:15:19;;;;;;;60.78;25.02;;;15.70;99.90;;;;;;5033165;28;20224;-84
2022/06/25 03:17:45;;;;;;;58.55;24.95;;;15.60;99.90;;;;;;5033453;28;20505;-85
2022/06/25 03:20:30;;;;;;;50.90;23.52;;;15.60;99.90;;;;;;5037238;28;20512;-86
2022/06/25 03:22:59;;;;;;;54.83;23.75;;;15.60;99.90;;;;;;5034192;28;20045;-84
2022/06/25 03:25:26;;;;;;;57.35;24.58;;;15.60;99.90;;;;;;5036631;28;20419;-85
2022/06/25 03:27:53;;;;;;;52.40;24.90;;;15.60;99.90;;;;;;5035541;28;20045;-85
2022/06/25 03:30:19;;;;;;;50.88;23.52;;;15.60;99.90;;;;;;5034202;28;20037;-84
2022/06/25 03:32:48;;;;;;;45.88;23.08;;;15.60;99.90;;;;;;5046256;28;20051;-83
2022/06/25 03:35:34;;;;;;;49.38;24.20;;;15.60;99.90;;;;;;5035381;28;20403;-85
2022/06/25 03:38:16;;;;;;;51.92;24.33;;;15.50;99.90;;;;;;5035892;28;20419;-85
2022/06/25 03:40:44;;;;;;;55.28;25.00;;;15.60;99.90;;;;;;5042230;28;20034;-85
2022/06/25 03:43:12;;;;;;;47.00;24.00;;;15.60;99.90;;;;;;5033830;28;20037;-86
2022/06/25 03:45:42;;;;;;;52.65;25.67;;;15.60;99.90;;;;;;5035606;28;20049;-86
2022/06/25 03:48:10;;;;;;;52.30;25.33;;;15.60;99.90;;;;;;5034647;28;20037;-85
2022/06/25 03:50:59;;;;;;;48.85;24.63;;;15.60;99.90;;;;;;5035488;28;20033;-85
2022/06/25 03:53:26;;;;;;;55.58;24.55;;;15.60;99.90;;;;;;5044871;28;20044;-85
2022/06/25 03:55:52;;;;;;;52.17;24.17;;;15.70;99.90;;;;;;5054366;28;20378;-86
2022/06/25 03:58:18;;;;;;;53.00;24.10;;;15.80;99.90;;;;;;5045397;28;20390;-87
2022/06/25 04:00:45;;;;;;;46.65;23.58;;;15.90;99.90;;;;;;5034463;28;20041;-86
2022/06/25 04:03:11;;;;;;;43.47;24.17;;;15.80;99.90;;;;;;5044852;28;20030;-86
2022/06/25 04:05:57;;;;;;;45.35;23.80;;;15.90;99.90;;;;;;5043640;28;20041;-86
2022/06/25 04:08:36;;;;;;;49.87;23.00;;;15.90;99.90;;;;;;5046001;28;20056;-87
2022/06/25 04:11:05;;;;;;;43.78;20.50;;;15.90;99.90;;;;;;5034574;28;20498;-86
2022/06/25 04:13:36;;;;;;;45.40;21.15;;;16.00;99.90;;;;;;5030149;28;20056;-87
2022/06/25 04:16:04;;;;;;;38.28;20.80;;;16.00;99.90;;;;;;5029746;28;20057;-87
2022/06/25 04:18:31;;;;;;;28.42;19.10;;;16.10;99.90;;;;;;5043809;28;20052;-87
2022/06/25 04:20:59;;;;;;;31.83;19.30;;;16.40;99.90;;;;;;5034725;28;20041;-87
2022/06/25 04:23:26;;;;;;;22.90;13.90;;;17.30;99.90;;;;;;5034143;28;20390;-87
2022/06/25 04:25:52;;;;;;;18.33;9.52;;;18.00;99.90;;;;;;5017817;28;20406;-87
2022/06/25 04:31:21;;;;;;;13.77;8.15;;;19.30;99.90;;;;;;5048143;28;20041;-87
2022/06/25 04:33:48;;;;;;;11.60;6.85;;;19.50;99.90;;;;;;5062378;28;20037;-86
2022/06/25 04:36:15;;;;;;;8.88;7.20;;;19.40;99.90;;;;;;5033844;28;20052;-86
2022/06/25 04:38:46;;;;;;;10.48;5.53;;;19.80;99.90;;;;;;5037155;28;20041;-87
2022/06/25 04:41:13;;;;;;;6.63;5.68;;;20.10;99.90;;;;;;5036089;28;20398;-87
2022/06/25 04:43:39;;;;;;;10.75;5.35;;;20.40;99.90;;;;;;5052152;28;20056;-87
2022/06/25 04:46:11;;;;;;;5.68;5.00;;;20.50;99.90;;;;;;5050601;28;20040;-86
2022/06/25 04:48:40;;;;;;;8.90;5.07;;;20.30;99.90;;;;;;5033774;28;20046;-88
2022/06/25 04:51:36;;;;;;;16.73;5.00;;;20.10;99.90;;;;;;5030588;28;20041;-87
2022/06/25 04:54:03;;;;;;;7.63;4.53;;;19.90;99.90;;;;;;5033186;28;20475;-87
2022/06/25 04:56:36;;;;;;;6.45;4.35;;;20.10;99.90;;;;;;5047063;28;20056;-85
2022/06/25 04:59:04;;;;;;;6.35;3.45;;;20.00;99.90;;;;;;5037429;28;20041;-86
2022/06/25 05:01:30;;;;;;;6.03;3.67;;;20.70;99.90;;;;;;5043537;28;20037;-86
2022/06/25 05:03:57;;;;;;;7.88;4.10;;;20.80;99.90;;;;;;5053636;28;20378;-89
2022/06/25 05:06:23;;;;;;;8.30;4.05;;;21.10;99.90;;;;;;5043479;28;20052;-87
2022/06/25 05:08:49;;;;;;;7.70;4.10;;;21.80;99.90;;;;;;5038778;28;20494;-85
2022/06/25 05:11:16;;;;;;;6.50;3.92;;;21.40;99.90;;;;;;5048124;28;20037;-85
2022/06/25 05:13:42;;;;;;;5.72;3.15;;;21.80;99.90;;;;;;5037845;28;20056;-84
2022/06/25 05:16:08;;;;;;;4.60;3.25;;;21.50;99.90;;;;;;5033769;28;20045;-84
2022/06/25 05:18:34;;;;;;;5.68;3.78;;;21.90;99.90;;;;;;5032819;28;20045;-84
2022/06/25 05:21:01;;;;;;;5.88;3.25;;;21.70;99.90;;;;;;5034186;28;20391;-84
2022/06/25 05:23:28;;;;;;;5.28;3.22;;;21.90;99.90;;;;;;5033295;28;20494;-83
2022/06/25 05:25:55;;;;;;;6.72;3.10;;;22.10;99.90;;;;;;5033332;28;20406;-82
2022/06/25 05:28:21;;;;;;;5.97;3.17;;;22.70;99.90;;;;;;5031997;28;20053;-83
2022/06/25 05:30:48;;;;;;;4.72;2.55;;;22.40;99.90;;;;;;5048041;28;20032;-80
2022/06/25 05:33:14;;;;;;;5.82;3.13;;;21.50;99.90;;;;;;5033416;28;20033;-80
2022/06/25 05:35:40;;;;;;;4.97;2.83;;;21.60;99.90;;;;;;5032594;28;20062;-80
2022/06/25 05:38:08;;;;;;;7.18;3.05;;;21.70;99.90;;;;;;5048348;28;20048;-80
2022/06/25 05:40:35;;;;;;;4.53;3.13;;;22.10;99.90;;;;;;5032391;28;20046;-80
2022/06/25 05:43:01;;;;;;;7.32;2.85;;;21.70;99.90;;;;;;5033552;28;20037;-80
2022/06/25 05:45:27;;;;;;;5.35;2.88;;;21.80;99.90;;;;;;5033138;28;20035;-81
2022/06/25 05:47:54;;;;;;;6.35;3.03;;;21.80;99.90;;;;;;5044468;28;20026;-81
2022/06/25 05:50:20;;;;;;;4.95;2.13;;;22.10;99.90;;;;;;5032714;28;20455;-81
2022/06/25 05:52:46;;;;;;;3.15;2.17;;;22.00;99.90;;;;;;5033703;28;20037;-80
2022/06/25 05:55:12;;;;;;;5.55;2.90;;;21.70;99.90;;;;;;5032561;28;20025;-80
2022/06/25 05:57:39;;;;;;;3.13;2.40;;;21.80;99.90;;;;;;5033088;28;20049;-80
2022/06/25 06:00:06;;;;;;;5.13;2.10;;;22.30;99.90;;;;;;5034250;28;20030;-81
2022/06/25 06:02:38;;;;;;;7.72;3.75;;;22.20;99.90;;;;;;5054912;28;20383;-81
2022/06/25 06:05:05;;;;;;;4.55;2.10;;;22.20;99.90;;;;;;5039306;28;20029;-82
2022/06/25 06:07:31;;;;;;;9.82;2.38;;;22.60;99.90;;;;;;5045146;28;20040;-81
2022/06/25 06:09:57;;;;;;;3.58;2.40;;;22.40;99.90;;;;;;5051611;28;20036;-82
2022/06/25 06:12:23;;;;;;;3.20;2.17;;;22.50;99.90;;;;;;5033004;28;20048;-81
2022/06/25 06:14:49;;;;;;;6.80;3.00;;;22.20;99.90;;;;;;5033678;28;20076;-81
2022/06/25 06:17:15;;;;;;;3.65;1.80;;;22.20;99.90;;;;;;5032760;28;20056;-81
2022/06/25 06:19:42;;;;;;;5.25;2.25;;;22.60;99.90;;;;;;5031953;28;20041;-82
2022/06/25 06:22:08;;;;;;;4.70;2.53;;;23.00;99.90;;;;;;5032185;28;20041;-83
2022/06/25 06:24:34;;;;;;;4.43;2.25;;;22.80;99.90;;;;;;5036276;28;20029;-83
2022/06/25 06:27:01;;;;;;;7.72;2.80;;;22.10;99.90;;;;;;5032693;28;20041;-83
2022/06/25 06:29:28;;;;;;;3.53;2.08;;;22.60;99.90;;;;;;5033065;28;20379;-82
2022/06/25 06:31:55;;;;;;;3.95;1.92;;;23.30;99.90;;;;;;5031973;28;20045;-83
2022/06/25 06:34:21;;;;;;;2.45;1.80;;;23.30;99.90;;;;;;5054857;28;20033;-82
2022/06/25 06:36:47;;;;;;;3.58;1.83;;;23.40;99.90;;;;;;5040161;28;20044;-82
2022/06/25 06:39:14;;;;;;;4.45;1.85;;;23.40;99.90;;;;;;5034292;28;20395;-83
2022/06/25 06:41:40;;;;;;;2.28;1.60;;;23.30;99.90;;;;;;5038867;28;20324;-82
2022/06/25 06:44:07;;;;;;;6.60;2.17;;;22.80;99.90;;;;;;5039004;28;20038;-82
2022/06/25 06:46:33;;;;;;;3.08;2.08;;;22.70;99.90;;;;;;5032657;28;20041;-84
2022/06/25 06:48:59;;;;;;;4.80;2.08;;;23.10;99.90;;;;;;5032931;28;20489;-81
2022/06/25 06:51:25;;;;;;;4.47;1.90;;;23.80;99.90;;;;;;5043953;28;20029;-83
2022/06/25 06:53:51;;;;;;;3.60;2.20;;;23.70;99.90;;;;;;5031505;28;20037;-82
2022/06/25 06:56:18;;;;;;;3.97;1.85;;;23.40;99.90;;;;;;5040587;28;20037;-82
2022/06/25 06:58:44;;;;;;;3.65;1.75;;;23.70;99.90;;;;;;5043383;28;20026;-80
2022/06/25 07:01:10;;;;;;;3.33;1.60;;;23.00;99.90;;;;;;5045480;28;20030;-80
2022/06/25 07:03:36;;;;;;;5.50;1.75;;;22.20;99.90;;;;;;5035441;28;20025;-81
2022/06/25 07:06:02;;;;;;;3.05;1.40;;;21.90;99.90;;;;;;5036077;28;20037;-82
2022/06/25 07:08:29;;;;;;;4.55;1.60;;;22.10;99.90;;;;;;5052515;28;20034;-81
2022/06/25 07:10:55;;;;;;;3.55;1.88;;;22.90;99.90;;;;;;5043447;28;20032;-81
2022/06/25 07:13:21;;;;;;;2.78;1.73;;;23.50;99.90;;;;;;5044588;28;20064;-81
2022/06/25 07:15:47;;;;;;;4.60;1.73;;;23.00;99.90;;;;;;5036791;28;20463;-81
2022/06/25 07:18:13;;;;;;;4.78;1.98;;;22.60;99.90;;;;;;5047921;28;20044;-81
2022/06/25 07:20:40;;;;;;;3.00;2.28;;;22.10;99.90;;;;;;5046140;28;20601;-81
2022/06/25 07:23:06;;;;;;;2.58;1.92;;;21.80;99.90;;;;;;5038498;28;20029;-78
2022/06/25 07:25:33;;;;;;;10.57;2.55;;;21.50;99.90;;;;;;5039048;28;20474;-78
2022/06/25 07:27:59;;;;;;;4.07;2.15;;;21.30;99.90;;;;;;5041139;28;20403;-76
2022/06/25 07:30:25;;;;;;;4.63;2.13;;;21.20;99.90;;;;;;5059103;28;20280;-78
2022/06/25 07:32:51;;;;;;;3.42;2.15;;;21.50;99.90;;;;;;5069718;28;20040;-76
2022/06/25 07:35:17;;;;;;;5.35;1.70;;;22.70;99.90;;;;;;5038009;28;20038;-77
2022/06/25 07:37:44;;;;;;;10.38;1.55;;;23.90;99.90;;;;;;5052075;28;20037;-77
2022/06/25 07:40:11;;;;;;;4.80;1.83;;;24.30;99.90;;;;;;5035793;28;20087;-77
2022/06/25 07:42:37;;;;;;;3.00;1.80;;;24.20;99.90;;;;;;5023234;28;20046;-78
2022/06/25 07:45:04;;;;;;;2.08;1.45;;;24.10;98.80;;;;;;5057946;28;20040;-78
2022/06/25 07:47:37;;;;;;;3.65;1.52;;;24.30;99.90;;;;;;5047241;28;20049;-79
2022/06/25 07:52:50;;;;;;;2.03;1.45;;;25.10;98.10;;;;;;5061758;28;20040;-79
2022/06/25 07:55:17;;;;;;;1.95;1.15;;;25.80;97.80;;;;;;5048507;28;20036;-79
2022/06/25 07:57:43;;;;;;;3.67;1.42;;;25.30;94.60;;;;;;5047268;28;20052;-80
2022/06/25 08:00:11;;;;;;;4.45;1.58;;;26.00;94.80;;;;;;5048690;28;20038;-80
2022/06/25 08:02:40;;;;;;;2.95;0.98;;;25.50;94.60;;;;;;5063532;28;20418;-79
2022/06/25 08:05:07;;;;;;;3.72;1.00;;;25.60;94.70;;;;;;5042482;28;20045;-82
2022/06/25 08:07:33;;;;;;;3.45;1.27;;;25.00;94.80;;;;;;5035199;28;20490;-79
2022/06/25 08:09:59;;;;;;;5.03;1.65;;;25.10;95.60;;;;;;5048646;28;20390;-79
2022/06/25 08:12:26;;;;;;;2.83;1.33;;;24.20;93.70;;;;;;5036069;28;20034;-80
2022/06/25 08:14:52;;;;;;;2.88;1.48;;;23.10;98.50;;;;;;5035102;28;20057;-78
2022/06/25 08:17:18;;;;;;;1.73;1.08;;;23.30;98.70;;;;;;5034690;28;20029;-80
2022/06/25 08:19:44;;;;;;;4.13;1.63;;;24.00;99.50;;;;;;5034751;28;20490;-81
2022/06/25 08:22:11;;;;;;;3.42;1.20;;;25.20;97.10;;;;;;5039025;28;20029;-80
2022/06/25 08:24:37;;;;;;;4.97;1.20;;;25.50;92.60;;;;;;5035207;28;20379;-80
2022/06/25 08:27:03;;;;;;;4.55;1.27;;;24.90;93.30;;;;;;5042681;28;20037;-80
2022/06/25 08:29:29;;;;;;;3.53;1.02;;;25.20;92.30;;;;;;5034960;28;20029;-78
2022/06/25 08:31:55;;;;;;;2.70;1.42;;;24.40;94.10;;;;;;5039244;28;20039;-81
2022/06/25 08:34:22;;;;;;;2.10;1.25;;;24.20;97.60;;;;;;5035307;28;20033;-78
2022/06/25 08:36:49;;;;;;;2.92;1.58;;;24.30;95.30;;;;;;5033356;28;20045;-79
2022/06/25 08:39:15;;;;;;;2.38;1.27;;;24.60;92.70;;;;;;5034756;28;20036;-80
2022/06/25 08:41:42;;;;;;;3.10;1.48;;;24.70;91.70;;;;;;5033871;28;20026;-77
2022/06/25 08:44:08;;;;;;;2.63;1.20;;;24.50;92.80;;;;;;5034696;28;20044;-79
2022/06/25 08:46:34;;;;;;;3.35;1.55;;;24.10;94.90;;;;;;5055065;28;20049;-80
2022/06/25 08:49:01;;;;;;;2.33;1.05;;;25.30;93.90;;;;;;5034754;28;20033;-81
2022/06/25 08:51:28;;;;;;;2.63;1.10;;;26.40;91.20;;;;;;5033597;28;20029;-80
2022/06/25 08:53:56;;;;;;;2.13;1.17;;;25.50;90.70;;;;;;5058928;28;20038;-80
2022/06/25 08:56:23;;;;;;;2.80;1.15;;;26.30;91.30;;;;;;5053381;28;20494;-80
2022/06/25 08:58:49;;;;;;;3.72;1.40;;;26.90;84.90;;;;;;5034694;28;20034;-79
2022/06/25 09:01:15;;;;;;;2.85;1.10;;;26.80;88.30;;;;;;5034379;28;20029;-79
2022/06/25 09:03:43;;;;;;;1.90;1.10;;;26.80;84.00;;;;;;5033133;28;20033;-75
2022/06/25 09:06:14;;;;;;;2.28;1.17;;;26.60;80.40;;;;;;5033707;28;20033;-79
2022/06/25 09:08:42;;;;;;;2.72;1.27;;;26.30;85.00;;;;;;5041893;28;20029;-78
2022/06/25 09:11:09;;;;;;;7.40;1.30;;;26.50;78.50;;;;;;5067300;28;20392;-76
2022/06/25 09:13:35;;;;;;;3.25;1.20;;;27.20;83.90;;;;;;5038816;28;20045;-76
2022/06/25 09:16:02;;;;;;;2.42;1.50;;;26.80;77.30;;;;;;5035785;28;20037;-79
2022/06/25 09:18:32;;;;;;;2.15;1.42;;;25.10;83.60;;;;;;5039295;28;20055;-82
2022/06/25 09:21:09;;;;;;;2.65;1.42;;;24.40;87.80;;;;;;5049446;28;20036;-79
2022/06/25 09:23:57;;;;;;;4.53;0.80;;;23.80;90.80;;;;;;5046034;28;20025;-79
2022/06/25 09:26:23;;;;;;;1.98;0.70;;;25.20;89.40;;;;;;5048753;28;20033;-77
2022/06/25 09:28:50;;;;;;;2.53;0.90;;;27.00;77.90;;;;;;5050188;28;20028;-78
2022/06/25 09:31:36;;;;;;;2.05;1.00;;;26.40;75.70;;;;;;5048180;28;20382;-80
2022/06/25 09:34:03;;;;;;;2.90;1.00;;;26.80;78.00;;;;;;5045853;28;20033;-81
2022/06/25 09:36:30;;;;;;;9.60;1.20;;;27.90;73.70;;;;;;5049353;28;20029;-78
2022/06/25 09:38:57;;;;;;;1.55;1.10;;;28.50;71.40;;;;;;5035619;28;20029;-79
2022/06/25 09:41:24;;;;;;;3.17;1.20;;;26.00;76.40;;;;;;5032953;28;20040;-79
2022/06/25 09:43:51;;;;;;;4.35;1.10;;;25.90;79.90;;;;;;5033089;28;20037;-78
2022/06/25 09:46:18;;;;;;;3.47;1.58;;;24.40;84.80;;;;;;5036920;28;20462;-79
2022/06/25 09:48:44;;;;;;;9.02;1.42;;;24.70;86.80;;;;;;5033472;28;20025;-80
2022/06/25 09:51:13;;;;;;;2.40;1.65;;;26.00;83.70;;;;;;5045342;28;20382;-79
2022/06/25 09:53:51;;;;;;;3.78;1.13;;;26.30;84.60;;;;;;5036736;28;20030;-78
2022/06/25 09:56:30;;;;;;;4.70;1.27;;;26.40;80.10;;;;;;5032577;28;20030;-79
2022/06/25 09:58:57;;;;;;;;;;;26.10;80.90;;;;;;5054801;28;20029;-80
2022/06/25 10:01:25;;;;;;;2.45;1.10;;;26.80;79.20;;;;;;5032563;28;19909;-79
2022/06/25 10:03:52;;;;;;;2.60;1.05;;;26.20;75.50;;;;;;5033345;28;20037;-79
2022/06/25 10:06:20;;;;;;;1.60;0.90;;;25.60;79.50;;;;;;5038596;28;20029;-79
2022/06/25 10:08:55;;;;;;;1.92;1.20;;;25.40;81.10;;;;;;5043898;28;20045;-77
2022/06/25 10:11:24;;;;;;;2.00;0.90;;;25.20;79.80;;;;;;5043090;28;20041;-79
2022/06/25 10:13:51;;;;;;;3.17;1.40;;;26.00;81.70;;;;;;5036968;28;20040;-79
2022/06/25 10:16:19;;;;;;;2.35;1.00;;;27.00;80.90;;;;;;5041977;28;20409;-77
2022/06/25 10:18:48;;;;;;;2.58;1.30;;;27.60;71.20;;;;;;5041422;28;20042;-80
2022/06/25 10:21:15;;;;;;;7.57;0.90;;;27.60;71.30;;;;;;5032259;28;20037;-78
2022/06/25 10:23:42;;;;;;;2.38;0.90;;;27.60;70.60;;;;;;5031961;28;20041;-79
2022/06/25 10:26:10;;;;;;;7.47;1.10;;;27.10;68.20;;;;;;5036062;28;20036;-77
2022/06/25 10:28:36;;;;;;;2.97;1.15;;;26.50;70.80;;;;;;5036333;28;20064;-78
2022/06/25 10:31:10;;;;;;;2.58;0.80;;;25.60;73.20;;;;;;5032870;28;20029;-80
2022/06/25 10:33:58;;;;;;;1.67;0.93;;;26.00;75.10;;;;;;5030949;28;20029;-78
2022/06/25 10:36:46;;;;;;;2.38;0.77;;;26.40;74.50;;;;;;5039902;28;20406;-75
2022/06/25 10:39:33;;;;;;;2.47;1.33;;;26.70;71.80;;;;;;5047498;28;20032;-75
2022/06/25 10:45:06;;;;;;;2.65;0.75;;;26.20;71.70;;;;;;5032908;28;20029;-74
2022/06/25 10:47:39;;;;;;;2.80;0.90;;;26.60;69.20;;;;;;5050683;28;20108;-77
2022/06/25 10:50:28;;;;;;;1.90;0.68;;;26.90;70.50;;;;;;5045967;28;20028;-76
2022/06/25 10:53:05;;;;;;;1.23;0.63;;;27.00;67.10;;;;;;5039235;28;20040;-75
2022/06/25 10:55:48;;;;;;;3.80;1.02;;;27.20;68.60;;;;;;5031824;28;20033;-76
2022/06/25 10:58:23;;;;;;;1.70;0.90;;;27.40;68.30;;;;;;5044830;28;20041;-77
2022/06/25 11:00:51;;;;;;;1.80;0.90;;;26.80;67.80;;;;;;5031549;28;20061;-77
2022/06/25 11:03:38;;;;;;;2.47;0.80;;;26.20;70.40;;;;;;5030630;28;20029;-77
2022/06/25 11:06:29;;;;;;;1.73;0.68;;;26.40;71.90;;;;;;5032137;28;20045;-77
2022/06/25 11:09:26;;;;;;;1.35;0.80;;;26.90;66.10;;;;;;5032895;28;20033;-77
2022/06/25 11:11:52;;;;;;;1.48;0.60;;;26.20;66.30;;;;;;5032145;28;20054;-77
2022/06/25 11:14:22;;;;;;;2.97;0.77;;;26.30;70.50;;;;;;5032029;28;20570;-77
2022/06/25 11:16:49;;;;;;;;;;;26.50;66.30;;;;;;5032119;28;20044;-76
2022/06/25 11:19:15;;;;;;;3.97;0.73;;;26.40;69.50;;;;;;5031962;28;19909;-76
2022/06/25 11:21:45;;;;;;;1.70;1.00;;;26.60;68.20;;;;;;5033228;28;20234;-75
2022/06/25 11:24:17;;;;;;;2.15;0.80;;;26.30;67.40;;;;;;5034656;28;20553;-77
2022/06/25 11:29:37;;;;;;;3.00;1.00;;;24.90;70.90;;;;;;5031572;28;20462;-77
2022/06/25 11:32:04;;;;;;;1.67;0.73;;;24.90;70.70;;;;;;5030888;28;20445;-75
2022/06/25 11:34:30;;;;;;;2.05;0.70;;;25.30;71.10;;;;;;5065816;28;20227;-76
2022/06/25 11:37:04;;;;;;;2.53;0.73;;;25.40;68.00;;;;;;5036514;28;20091;-77
2022/06/25 11:39:31;;;;;;;2.47;0.73;;;25.50;67.10;;;;;;5030779;28;20263;-77
2022/06/25 11:41:58;;;;;;;1.05;0.80;;;25.50;73.60;;;;;;5047044;28;20045;-76
2022/06/25 11:44:24;;;;;;;1.95;0.70;;;26.40;71.30;;;;;;5038358;28;20045;-78
2022/06/25 11:46:52;;;;;;;5.00;1.15;;;26.90;66.30;;;;;;5040855;28;20044;-76
2022/06/25 11:49:22;;;;;;;1.95;0.93;;;26.40;65.00;;;;;;5042351;28;20044;-76
2022/06/25 11:51:52;;;;;;;1.52;0.60;;;26.00;66.00;;;;;;5039119;28;20033;-74
2022/06/25 11:54:24;;;;;;;1.35;0.57;;;26.10;64.90;;;;;;5048050;28;20040;-76
2022/06/25 11:56:53;;;;;;;1.50;0.93;;;25.70;65.70;;;;;;5045844;28;20033;-77
2022/06/25 11:59:32;;;;;;;2.50;0.80;;;25.80;65.10;;;;;;5035642;28;20030;-77
2022/06/25 12:02:04;;;;;;;0.77;0.60;;;26.20;64.10;;;;;;5034473;28;20038;-78
2022/06/25 12:04:32;;;;;;;1.25;0.50;;;26.00;64.40;;;;;;5035995;28;20030;-76
2022/06/25 12:06:59;;;;;;;3.03;0.70;;;26.20;64.30;;;;;;5041405;28;20033;-76
2022/06/25 12:09:26;;;;;;;1.25;0.70;;;26.00;62.20;;;;;;5034835;28;20042;-76
2022/06/25 12:11:52;;;;;;;3.95;0.98;;;25.90;65.60;;;;;;5048304;28;20025;-77
2022/06/25 12:14:28;;;;;;;1.95;0.80;;;26.20;65.60;;;;;;5033181;28;20057;-76
2022/06/25 12:16:55;;;;;;;1.00;0.70;;;26.40;63.60;;;;;;5035479;28;20036;-76
2022/06/25 12:19:22;;;;;;;2.55;1.38;;;26.20;61.90;;;;;;5035154;28;20026;-77
2022/06/25 12:21:48;;;;;;;1.73;0.73;;;26.70;62.70;;;;;;5034340;28;20037;-78
2022/06/25 12:24:17;;;;;;;1.30;0.60;;;27.30;61.50;;;;;;5034689;28;20382;-77
2022/06/25 12:26:51;;;;;;;0.80;0.52;;;27.60;59.10;;;;;;5048514;28;20037;-75
2022/06/25 12:29:20;;;;;;;1.45;0.50;;;27.50;56.60;;;;;;5036638;28;20137;-78
2022/06/25 12:31:54;;;;;;;;;;;27.30;58.70;;;;;;5034547;28;20479;-77
2022/06/25 12:34:20;;;;;;;1.08;0.40;;;27.00;59.60;;;;;;5036481;28;20354;-77
2022/06/25 12:36:49;;;;;;;1.10;0.50;;;27.10;58.70;;;;;;5034533;28;20041;-77
2022/06/25 12:39:36;;;;;;;1.43;0.40;;;27.70;56.30;;;;;;5042968;28;20046;-78
2022/06/25 12:42:08;;;;;;;1.02;0.45;;;28.20;54.70;;;;;;5034972;28;20292;-79
2022/06/25 12:44:39;;;;;;;0.52;0.38;;;28.20;56.20;;;;;;5035520;28;20383;-76
2022/06/25 12:47:11;;;;;;;2.25;0.52;;;28.30;55.80;;;;;;5036193;28;20038;-76
2022/06/25 12:49:54;;;;;;;1.05;0.55;;;28.20;56.20;;;;;;5035275;28;20033;-77
2022/06/25 12:52:38;;;;;;;0.40;0.38;;;27.80;56.50;;;;;;5033145;28;20029;-78
2022/06/25 12:55:06;;;;;;;3.40;0.63;;;27.60;53.80;;;;;;5040907;28;20505;-79
2022/06/25 12:57:35;;;;;;;1.20;0.50;;;27.50;56.50;;;;;;5049934;28;20049;-79
2022/06/25 13:00:05;;;;;;;1.15;0.50;;;27.90;56.10;;;;;;5052763;28;20037;-79
2022/06/25 13:02:32;;;;;;;1.23;0.50;;;28.20;56.00;;;;;;5049915;28;20028;-79
2022/06/25 13:04:58;;;;;;;2.60;0.60;;;28.40;54.70;;;;;;5033124;28;20040;-77
2022/06/25 13:07:24;;;;;;;1.52;0.70;;;28.20;55.10;;;;;;5033725;28;20041;-75